Airfield :
LOGIN :

Register | Disclaimer

   EN    FR    IT 

 










Legend :    VFR   Marginal VFR   IFR   Intensive IFR   Very Intensive IFR
Visi :
Ceiling :
>= 8 km
>= 3000ft
5 to 8 km
1000 to 3000 ft
1500m to 5 km
500 to 1000 ft
800 to 1500m
200 to 500 ft
< 800m
< 200 ft
Symbols :   Thunderstorms  Fog  Heavy snow  Heavy precipitations  Wind > 20 kt
SIGMETs :     Misc.  Thunderstorms  Icing  Turbulence  Mountain Waves  Volcanic Ashes







- Airport Elevation : 502 ft
- IATA code : ORK


EICK - Cork

CURRENT METAR :
  • 191730Z 20005KT 9999 FEW007 SCT010 BKN014 12/11 Q1026 BECMG BKN008

EXPIRED METARs :
  • 191700Z 20004KT 9999 FEW007 BKN010 12/11 Q1026 BECMG BKN008
  • 191630Z 21006KT 9999 FEW008 BKN012 BKN045 12/11 Q1026 NOSIG
  • 191600Z 23004KT 9999 BKN012 12/10 Q1026 NOSIG
  • 191530Z 22006KT 9999 BKN012 13/10 Q1026 NOSIG
  • 191500Z 23006KT 9999 BKN013 13/10 Q1026 NOSIG
  • 191430Z 23006KT 9999 BKN013 13/10 Q1025 NOSIG

TAF TAF EICK
Valid from the 19 at 18:00 until the 20 at 18:00 UTC


191700Z 1918/2018 23010KT 9999 BKN012
BECMG 1918/1921 20008KT BKN007
TEMPO 1921/2011 BKN004
PROB40
TEMPO 1921/2011 4000 BR
TEMPO 2015/2018 3000 -DZ BR BKN002
No reported NOTAMs for that airfield.



MET'MAP, your aeronautical weather chart ! - Copyright ORBIFLY December 2007 - Disclaimer

ORBIFLY MET'MAP TEAM :

Programming & Development : Alexandra Zaïnal
Concept & Development : Baudouin d'Aumeries
Co-Development & Prog : Marc-Olivier Méhu
Technical & hardware support : Manuel Goepfert

Contact : metmap@orbifly.com




SOURCES & CREDITS :

   NOAA